Clarkton, North Carolina
Current Conditions -  °F | °C
As of 9:15 AM on Wednesday 28 Jan 2015 (Local Time) from KEYF Reporting Station
Clear Clear  
Wind Chill: -3°   Ceiling: Unl
Heat Index:   Visibility: 10mi
Dew Point: -8°   Wind: 6mph
Humidity: 57%   Direction: 340°NNW
Pressure: 30.23"   Gusts: NA
Location:  34.49°N, 78.66°W
Report Text: KEYF 281415Z AUTO 34005KT 10SM CLR 00/M08 A3023 RMK AO2 T10021078
Loading
Personal Weather Stations






























Interactive Weather Map New forecast layout! Learn more

10-Day Weather Forecast

Advertisements
Track Severe Weather on mobile